Time;durP1;ratioP1;P1;durP2;ratioP2;P2;SDS_P1;SDS_P2;PMS_P1;PMS_P2;Temp;Humidity;BMP_temperature;BMP_pressure;BME280_temperature;BME280_humidity;BME280_pressure;Samples;Min_cycle;Max_cycle;Signal;HPM_P1;HPM_P2
2022/05/14 00:00:40;;;;;;;4.75;4.07;;;;;;;16.19;92.49;97040.31;5057031;28;20206;-50
2022/05/14 00:03:06;;;;;;;4.40;3.90;;;;;;;16.19;91.43;97034.97;5056726;28;20508;-50
2022/05/14 00:05:33;;;;;;;4.85;4.18;;;;;;;16.18;92.26;97035.97;5056768;28;20570;-50
2022/05/14 00:07:59;;;;;;;6.80;4.10;;;;;;;16.20;91.25;97037.47;5056919;28;20631;-50
2022/05/14 00:10:31;;;;;;;6.72;3.70;;;;;;;16.20;90.88;97041.97;5056793;28;20199;-50
2022/05/14 00:13:05;;;;;;;3.97;3.67;;;;;;;16.07;92.75;97036.31;5056441;28;20199;-51
2022/05/14 00:15:35;;;;;;;4.32;3.80;;;;;;;16.02;93.38;97027.94;5055406;28;20298;-49
2022/05/14 00:18:02;;;;;;;4.88;3.53;;;;;;;16.05;93.58;97033.78;5057052;28;20222;-50
2022/05/14 00:20:29;;;;;;;6.57;3.70;;;;;;;16.02;93.61;97034.13;5056870;28;20678;-50
2022/05/14 00:22:55;;;;;;;4.72;3.95;;;;;;;16.08;93.17;97027.31;5056507;28;20263;-49
2022/05/14 00:25:22;;;;;;;4.80;3.58;;;;;;;16.09;92.41;97035.13;5056724;28;20206;-49
2022/05/14 00:27:52;;;;;;;4.73;3.67;;;;;;;16.06;92.20;97024.78;5062660;28;20203;-50
2022/05/14 00:30:21;;;;;;;4.93;3.83;;;;;;;16.01;92.99;97020.97;5078265;28;20218;-50
2022/05/14 00:32:53;;;;;;;5.40;3.90;;;;;;;15.98;93.69;97027.44;5078514;28;20214;-50
2022/05/14 00:35:20;;;;;;;3.65;3.35;;;;;;;16.02;92.22;97027.94;5077658;28;20207;-50
2022/05/14 00:37:47;;;;;;;4.85;3.67;;;;;;;15.93;93.29;97030.66;5078912;28;20205;-50
2022/05/14 00:40:18;;;;;;;4.25;3.63;;;;;;;15.89;93.38;97029.31;5078429;28;20227;-50
2022/05/14 00:42:44;;;;;;;4.82;4.00;;;;;;;15.90;93.64;97025.66;5079327;28;20175;-49
2022/05/14 00:45:16;;;;;;;5.17;3.70;;;;;;;15.86;94.20;97024.31;5079336;28;20223;-50
2022/05/14 00:47:45;;;;;;;4.10;3.70;;;;;;;15.86;94.35;97024.31;5079353;28;20167;-49
2022/05/14 00:50:27;;;;;;;4.22;3.78;;;;;;;15.86;94.38;97020.81;5069770;28;20203;-50
2022/05/14 00:52:59;;;;;;;6.60;4.18;;;;;;;15.87;93.79;97028.63;5079337;28;20187;-50
2022/05/14 00:55:26;;;;;;;6.30;3.60;;;;;;;15.84;93.78;97026.28;5078601;28;20206;-49
2022/05/14 00:57:54;;;;;;;4.25;3.95;;;;;;;15.85;94.02;97033.31;5078070;28;20202;-50
2022/05/14 01:00:23;;;;;;;6.22;3.60;;;;;;;15.85;94.28;97025.31;5078527;28;20237;-54
2022/05/14 01:02:50;;;;;;;6.27;3.70;;;;;;;15.80;95.16;97032.94;5079137;28;20206;-50
2022/05/14 01:05:21;;;;;;;4.27;3.73;;;;;;;15.77;95.73;97035.97;5079020;28;20183;-50
2022/05/14 01:07:50;;;;;;;3.95;3.50;;;;;;;15.82;94.93;97033.63;5078844;28;20167;-49
2022/05/14 01:10:21;;;;;;;4.40;4.00;;;;;;;15.81;94.09;97039.97;5078746;28;20199;-49
2022/05/14 01:12:54;;;;;;;5.05;3.70;;;;;;;15.80;94.78;97040.16;5078686;28;20229;-50
2022/05/14 01:15:24;;;;;;;6.87;3.90;;;;;;;15.82;95.26;97038.13;5064402;28;20204;-49
2022/05/14 01:17:51;;;;;;;4.33;3.93;;;;;;;15.79;95.87;97044.63;5076873;28;20186;-50
2022/05/14 01:20:20;;;;;;;7.23;4.47;;;;;;;15.74;95.71;97038.97;5065102;28;20231;-50
2022/05/14 01:22:58;;;;;;;5.60;4.45;;;;;;;15.76;95.48;97039.66;5068998;28;20219;-50
2022/05/14 01:28:18;;;;;;;5.23;4.70;;;;;;;15.75;95.95;97037.13;5063571;28;20231;-49
2022/05/14 01:30:50;;;;;;;5.43;4.33;;;;;;;15.74;96.32;97036.28;5052651;28;20214;-49
2022/05/14 01:33:17;;;;;;;6.53;4.83;;;;;;;15.69;97.40;97035.13;5068127;28;20206;-49
2022/05/14 01:35:45;;;;;;;5.50;5.00;;;;;;;15.70;96.77;97034.94;5069037;28;20198;-50
2022/05/14 01:38:12;;;;;;;7.60;4.95;;;;;;;15.69;96.41;97038.63;5064990;28;20221;-49
2022/05/14 01:40:40;;;;;;;4.60;4.10;;;;;;;15.67;96.33;97031.78;5072582;28;20219;-50
2022/05/14 01:43:07;;;;;;;5.70;5.03;;;;;;;15.65;96.38;97036.47;5071013;28;20217;-50
2022/05/14 01:45:35;;;;;;;5.75;4.47;;;;;;;15.65;96.99;97033.78;5072065;28;20203;-50
2022/05/14 01:48:04;;;;;;;5.40;4.90;;;;;;;15.60;96.66;97038.78;5056012;28;20214;-50
2022/05/14 01:50:32;;;;;;;5.27;4.77;;;;;;;15.65;96.68;97037.28;5077877;28;20233;-50
2022/05/14 01:52:59;;;;;;;8.50;5.07;;;;;;;15.72;95.14;97030.31;5064048;28;20210;-50
2022/05/14 01:55:27;;;;;;;7.47;5.10;;;;;;;15.69;95.65;97035.97;5077492;28;20209;-50
2022/05/14 01:57:54;;;;;;;6.53;4.50;;;;;;;15.67;96.17;97026.44;5067476;28;20531;-50
2022/05/14 02:00:22;;;;;;;5.60;4.50;;;;;;;15.63;96.94;97025.94;5063564;28;20235;-50
2022/05/14 02:02:53;;;;;;;8.23;4.93;;;;;;;15.60;97.50;97023.63;5063877;28;20206;-50
2022/05/14 02:05:20;;;;;;;5.00;4.60;;;;;;;15.57;97.23;97015.94;5067409;28;20214;-49
2022/05/14 02:07:46;;;;;;;5.60;4.70;;;;;;;15.61;97.46;97022.63;5068723;28;20672;-50
2022/05/14 02:10:13;;;;;;;6.13;4.93;;;;;;;15.58;97.77;97020.28;5068205;28;20310;-50
2022/05/14 02:12:41;;;;;;;5.97;4.97;;;;;;;15.60;97.79;97017.44;5055073;28;20214;-50
2022/05/14 02:15:08;;;;;;;6.10;5.13;;;;;;;15.63;95.93;97023.28;5070587;28;20284;-50
2022/05/14 02:17:36;;;;;;;5.47;4.90;;;;;;;15.57;96.21;97018.63;5071391;28;20203;-49
2022/05/14 02:20:06;;;;;;;5.50;4.57;;;;;;;15.52;97.84;97020.13;5056878;28;20231;-50
2022/05/14 02:22:33;;;;;;;6.10;5.00;;;;;;;15.44;97.41;97020.91;5066425;28;20199;-50
2022/05/14 02:25:00;;;;;;;5.80;5.20;;;;;;;15.41;97.44;97013.22;5067694;28;20294;-50
2022/05/14 02:27:27;;;;;;;5.38;4.85;;;;;;;15.48;97.07;97010.75;5070086;28;20274;-50
2022/05/14 02:29:54;;;;;;;5.30;4.73;;;;;;;15.48;95.87;97014.22;5066874;28;20206;-50
2022/05/14 02:32:23;;;;;;;7.97;4.60;;;;;;;15.43;97.31;97013.91;5062147;28;20213;-49
2022/05/14 02:34:50;;;;;;;7.43;5.03;;;;;;;15.42;97.35;97006.88;5072194;28;20234;-50
2022/05/14 02:37:19;;;;;;;4.82;4.43;;;;;;;15.34;97.90;97012.19;5065372;28;20203;-50
2022/05/14 02:39:45;;;;;;;6.90;4.88;;;;;;;15.36;98.06;97011.06;5066724;28;20226;-50
2022/05/14 02:42:12;;;;;;;5.05;4.63;;;;;;;15.37;97.54;97001.25;5075101;28;20190;-50
2022/05/14 02:44:40;;;;;;;5.90;5.10;;;;;;;15.37;98.09;97007.38;5074970;28;20221;-50
2022/05/14 02:47:08;;;;;;;6.38;4.97;;;;;;;15.33;97.84;96995.41;5079429;28;20211;-50
2022/05/14 02:49:35;;;;;;;6.67;5.13;;;;;;;15.35;98.02;96998.72;5075909;28;20207;-50
2022/05/14 02:52:02;;;;;;;5.82;4.90;;;;;;;15.37;97.71;97003.91;5071861;28;20207;-50
2022/05/14 02:54:32;;;;;;;5.63;5.13;;;;;;;15.35;97.37;96993.38;5076679;28;20210;-50
2022/05/14 02:56:58;;;;;;;6.20;5.10;;;;;;;15.32;97.92;97000.88;5079182;28;20226;-50
2022/05/14 02:59:25;;;;;;;5.80;4.90;;;;;;;15.30;99.28;96992.22;5078631;28;20239;-50
2022/05/14 03:01:54;;;;;;;6.93;5.47;;;;;;;15.29;99.89;96994.06;5079683;28;20207;-50
2022/05/14 03:04:24;;;;;;;5.53;5.10;;;;;;;15.29;99.86;97006.53;5079056;28;20222;-50
2022/05/14 03:06:50;;;;;;;5.73;5.13;;;;;;;15.33;98.79;96999.88;5078374;28;20211;-50
2022/05/14 03:09:17;;;;;;;5.53;4.93;;;;;;;15.29;98.31;96998.53;5078267;28;20215;-50
2022/05/14 03:11:50;;;;;;;6.63;5.57;;;;;;;15.32;99.12;97008.88;5078779;28;20287;-49
2022/05/14 03:14:17;;;;;;;5.80;5.30;;;;;;;15.30;99.34;97008.22;5065097;28;20230;-50
2022/05/14 03:16:44;;;;;;;6.80;5.37;;;;;;;15.26;99.34;97004.22;5078502;28;20238;-49
2022/05/14 03:19:12;;;;;;;6.20;5.60;;;;;;;15.26;99.13;97001.53;5077385;28;20187;-49
2022/05/14 03:21:41;;;;;;;8.27;6.43;;;;;;;15.25;99.15;97002.53;5077938;28;20203;-49
2022/05/14 03:24:10;;;;;;;6.60;5.33;;;;;;;15.20;99.04;97010.16;5077830;28;20239;-50
2022/05/14 03:26:37;;;;;;;6.17;5.20;;;;;;;15.16;99.84;97007.00;5078090;28;20232;-49
2022/05/14 03:29:07;;;;;;;6.30;5.00;;;;;;;15.13;99.13;97003.81;5078119;28;20210;-49
2022/05/14 03:31:34;;;;;;;8.27;5.63;;;;;;;15.04;100.00;97000.31;5076760;28;20229;-51
2022/05/14 03:34:01;;;;;;;6.53;5.30;;;;;;;14.94;100.00;96997.78;5077227;28;20184;-50
2022/05/14 03:36:29;;;;;;;6.00;5.40;;;;;;;14.89;100.00;97005.41;5076928;28;20203;-50
2022/05/14 03:38:57;;;;;;;6.70;5.70;;;;;;;14.91;100.00;97008.75;5076209;28;20218;-50
2022/05/14 03:41:24;;;;;;;6.33;5.73;;;;;;;14.91;100.00;97019.41;5076016;28;20221;-50
2022/05/14 03:43:51;;;;;;;7.40;6.57;;;;;;;14.95;99.86;97018.09;5071957;28;20241;-50
2022/05/14 03:46:19;;;;;;;8.60;5.97;;;;;;;14.94;100.00;97020.94;5068276;28;20198;-50
2022/05/14 03:48:45;;;;;;;6.27;5.67;;;;;;;14.97;100.00;97011.78;5074901;28;20207;-50
2022/05/14 03:51:12;;;;;;;8.23;6.00;;;;;;;14.90;100.00;97020.41;5071916;28;20227;-50
2022/05/14 03:53:41;;;;;;;8.50;6.13;;;;;;;14.93;100.00;97012.09;5065042;28;20213;-50
2022/05/14 03:56:10;;;;;;;6.23;5.67;;;;;;;14.91;100.00;97027.38;5073858;28;20211;-48
2022/05/14 03:58:37;;;;;;;6.47;5.87;;;;;;;14.94;100.00;97016.44;5057281;28;20206;-49
2022/05/14 04:01:03;;;;;;;8.73;6.07;;;;;;;14.98;100.00;97019.63;5060851;28;20227;-50
2022/05/14 04:03:32;;;;;;;6.53;5.93;;;;;;;14.97;100.00;97011.78;5056899;28;20222;-50
2022/05/14 04:05:59;;;;;;;7.47;5.27;;;;;;;14.98;100.00;97021.44;5057343;28;20199;-50
2022/05/14 04:08:26;;;;;;;6.07;5.40;;;;;;;14.98;100.00;97021.44;5057618;28;20290;-50
2022/05/14 04:10:52;;;;;;;6.47;5.83;;;;;;;15.04;99.89;97018.13;5059294;28;20206;-50
2022/05/14 04:13:19;;;;;;;6.50;5.70;;;;;;;14.98;100.00;97024.09;5064554;28;20203;-50
2022/05/14 04:15:48;;;;;;;6.13;5.63;;;;;;;14.99;100.00;97023.09;5066938;28;20211;-50
2022/05/14 04:18:14;;;;;;;6.37;5.70;;;;;;;15.00;100.00;97022.09;5068898;28;20282;-51
2022/05/14 04:20:42;;;;;;;8.07;6.07;;;;;;;15.02;100.00;97022.78;5067833;28;20231;-50
2022/05/14 04:23:09;;;;;;;6.63;5.40;;;;;;;15.02;100.00;97025.44;5056545;28;20232;-50
2022/05/14 04:25:36;;;;;;;6.23;5.57;;;;;;;15.07;100.00;97026.63;5068060;28;20218;-50
2022/05/14 04:28:02;;;;;;;6.97;6.30;;;;;;;15.12;100.00;97026.16;5066589;28;20294;-51
2022/05/14 04:30:31;;;;;;;6.80;6.07;;;;;;;15.16;100.00;97019.50;5065772;28;20199;-50
2022/05/14 04:32:58;;;;;;;7.53;6.43;;;;;;;15.22;100.00;97022.34;5059912;28;20218;-49
2022/05/14 04:35:24;;;;;;;8.60;6.57;;;;;;;15.32;100.00;97019.53;5058358;28;20207;-50
2022/05/14 04:37:52;;;;;;;5.83;5.43;;;;;;;15.44;99.34;97023.56;5067331;28;20624;-50
2022/05/14 04:40:20;;;;;;;6.80;6.13;;;;;;;15.59;98.66;97024.59;5066041;28;20223;-50
2022/05/14 04:42:47;;;;;;;8.90;6.10;;;;;;;15.64;97.42;97024.94;5059146;28;20204;-50
2022/05/14 04:45:15;;;;;;;6.70;6.10;;;;;;;15.56;96.98;97030.25;5058622;28;20207;-50
2022/05/14 04:47:42;;;;;;;7.47;6.00;;;;;;;15.60;97.10;97033.44;5061510;28;20207;-50
2022/05/14 04:50:11;;;;;;;6.23;5.63;;;;;;;15.69;96.16;97037.81;5064832;28;20199;-50
2022/05/14 04:52:38;;;;;;;7.30;5.90;;;;;;;15.67;95.65;97040.63;5069021;28;20210;-50
2022/05/14 04:55:09;;;;;;;6.03;5.40;;;;;;;15.59;96.49;97032.59;5073108;28;20207;-50
2022/05/14 04:57:38;;;;;;;6.50;5.73;;;;;;;15.60;96.77;97038.78;5073431;28;20242;-51
2022/05/14 05:00:06;;;;;;;6.47;5.83;;;;;;;15.56;95.13;97032.94;5068825;28;20227;-50
2022/05/14 05:05:17;;;;;;;7.33;5.60;;;;;;;15.63;95.03;97039.28;5065611;28;20230;-51
2022/05/14 05:07:43;;;;;;;7.00;5.27;;;;;;;15.93;93.35;97041.31;5059772;28;20223;-51
2022/05/14 05:10:12;;;;;;;8.30;5.90;;;;;;;16.31;91.83;97049.63;5057746;28;20640;-50
2022/05/14 05:12:38;;;;;;;5.70;5.10;;;;;;;16.63;89.99;97046.94;5062767;28;20204;-50
2022/05/14 05:15:05;;;;;;;6.17;5.53;;;;;;;16.89;86.11;97039.50;5063024;28;20643;-50
2022/05/14 05:17:32;;;;;;;5.53;5.03;;;;;;;17.08;86.06;97040.09;5056965;28;20318;-49
2022/05/14 05:19:58;;;;;;;6.20;5.60;;;;;;;17.29;82.89;97048.34;5051599;28;20638;-50
2022/05/14 05:22:25;;;;;;;6.80;4.63;;;;;;;17.48;81.24;97042.56;5043122;28;20215;-50
2022/05/14 05:24:51;;;;;;;7.97;4.97;;;;;;;17.66;78.35;97048.50;5072932;28;20202;-50
2022/05/14 05:27:20;;;;;;;7.45;5.13;;;;;;;17.84;76.92;97046.38;5069534;28;20218;-51
2022/05/14 05:29:47;;;;;;;7.25;4.95;;;;;;;18.15;75.13;97042.78;5064779;28;20211;-51
2022/05/14 05:32:14;;;;;;;7.43;4.60;;;;;;;18.23;73.81;97053.44;5065269;28;20200;-51
2022/05/14 05:34:40;;;;;;;6.90;4.95;;;;;;;17.90;75.48;97050.16;5067903;28;20286;-50
2022/05/14 05:37:07;;;;;;;8.85;4.72;;;;;;;17.74;77.06;97045.78;5074633;28;20203;-51
2022/05/14 05:39:34;;;;;;;7.50;4.68;;;;;;;17.56;77.62;97055.94;5075668;28;20208;-50
2022/05/14 05:42:01;;;;;;;4.75;4.32;;;;;;;17.51;77.86;97050.22;5075322;28;20234;-50
2022/05/14 05:44:30;;;;;;;6.20;4.45;;;;;;;17.23;81.62;97054.38;5075687;28;20203;-50
2022/05/14 05:46:57;;;;;;;7.07;4.68;;;;;;;17.23;80.64;97049.03;5075185;28;20218;-51
2022/05/14 05:49:24;;;;;;;5.47;4.60;;;;;;;17.19;79.85;97048.56;5055261;28;20212;-51
2022/05/14 05:51:51;;;;;;;6.28;4.43;;;;;;;17.14;78.51;97047.44;5055242;28;20210;-50
2022/05/14 05:57:03;;;;;;;5.20;4.70;;;;;;;17.11;78.99;97047.78;5054972;28;20197;-49
2022/05/14 05:59:32;;;;;;;6.47;4.63;;;;;;;17.16;77.82;97045.41;5054847;28;20207;-51
2022/05/14 06:02:00;;;;;;;5.68;4.65;;;;;;;17.51;76.97;97046.72;5055167;28;20233;-50
2022/05/14 06:04:27;;;;;;;6.30;4.50;;;;;;;17.85;75.83;97042.66;5075444;28;20210;-50
2022/05/14 06:06:53;;;;;;;4.88;4.47;;;;;;;17.98;74.82;97046.59;5065654;28;20195;-50
2022/05/14 06:09:21;;;;;;;6.75;4.93;;;;;;;17.92;72.46;97044.66;5076816;28;20190;-50
2022/05/14 06:11:48;;;;;;;5.88;4.35;;;;;;;18.25;72.59;97054.06;5067647;28;20210;-51
2022/05/14 06:14:15;;;;;;;4.55;4.10;;;;;;;18.45;74.17;97051.72;5065507;28;20234;-50
2022/05/14 06:16:43;;;;;;;5.63;4.63;;;;;;;18.73;73.24;97059.00;5056101;28;20206;-51
2022/05/14 06:19:10;;;;;;;7.43;4.07;;;;;;;19.09;71.43;97056.41;5044119;28;20651;-51
2022/05/14 06:21:38;;;;;;;5.35;4.10;;;;;;;19.48;69.28;97049.91;5055232;28;20234;-51
2022/05/14 06:24:06;;;;;;;6.65;4.15;;;;;;;19.81;68.07;97054.63;5055952;28;20245;-50
2022/05/14 06:26:32;;;;;;;6.80;4.28;;;;;;;20.08;64.61;97049.53;5055709;28;20220;-50
2022/05/14 06:29:00;;;;;;;5.68;3.95;;;;;;;20.32;64.64;97059.88;5054466;28;20544;-51
2022/05/14 06:31:27;;;;;;;4.88;4.38;;;;;;;20.56;62.49;97059.47;5054803;28;20230;-50
2022/05/14 06:33:55;;;;;;;7.03;4.28;;;;;;;20.89;63.09;97061.56;5054654;28;20534;-50
2022/05/14 06:36:21;;;;;;;5.18;4.28;;;;;;;20.81;60.77;97060.69;5054648;28;20207;-51
2022/05/14 06:38:50;;;;;;;5.65;3.92;;;;;;;20.91;62.60;97051.41;5054300;28;20199;-50
2022/05/14 06:41:17;;;;;;;4.38;3.97;;;;;;;21.08;59.50;97052.78;5054060;28;20552;-50
2022/05/14 06:43:44;;;;;;;7.00;4.40;;;;;;;21.08;59.64;97052.78;5054128;28;20243;-51
2022/05/14 06:46:11;;;;;;;6.32;4.72;;;;;;;21.29;59.06;97052.72;5054661;28;20574;-50
2022/05/14 06:48:38;;;;;;;5.68;4.32;;;;;;;21.78;60.65;97056.00;5054247;28;20215;-49
2022/05/14 06:51:09;;;;;;;4.38;3.92;;;;;;;22.18;58.79;97062.31;5054495;28;20203;-49
2022/05/14 06:53:37;;;;;;;7.50;4.30;;;;;;;21.95;58.57;97056.47;5053007;28;20215;-50
2022/05/14 06:56:05;;;;;;;5.20;3.85;;;;;;;22.20;57.22;97056.72;5054489;28;20207;-51
2022/05/14 06:58:33;;;;;;;7.30;4.30;;;;;;;22.23;57.08;97053.63;5054385;28;20207;-51
2022/05/14 07:01:00;;;;;;;4.10;3.70;;;;;;;22.45;57.81;97054.25;5053383;28;20227;-49
2022/05/14 07:08:57;;;;;;;5.63;3.83;;;;;;;22.51;59.19;97046.16;5054628;28;20647;-51
2022/05/14 07:11:24;;;;;;;5.18;4.40;;;;;;;22.49;56.05;97050.94;5054513;28;20195;-50
2022/05/14 07:13:51;;;;;;;5.20;4.18;;;;;;;22.73;58.23;97054.91;5041222;28;20237;-50
2022/05/14 07:16:17;;;;;;;5.07;4.45;;;;;;;22.92;56.74;97053.22;5055013;28;20203;-50
2022/05/14 07:18:46;;;;;;;5.43;4.30;;;;;;;22.68;55.48;97049.28;5054540;28;20219;-50
2022/05/14 07:21:14;;;;;;;4.78;4.38;;;;;;;23.13;56.14;97044.88;5054152;28;20226;-49
2022/05/14 07:23:40;;;;;;;7.00;5.07;;;;;;;23.09;56.08;97043.63;5054146;28;20230;-49
2022/05/14 07:26:08;;;;;;;6.10;4.68;;;;;;;23.37;55.09;97046.03;5059076;28;20206;-50
2022/05/14 07:28:36;;;;;;;6.68;4.72;;;;;;;23.38;55.56;97043.13;5059037;28;20207;-49
2022/05/14 07:31:03;;;;;;;4.57;4.18;;;;;;;23.59;54.83;97042.88;5057490;28;20664;-49
2022/05/14 07:33:31;;;;;;;6.28;4.50;;;;;;;23.47;55.39;97051.84;5057687;28;20214;-50
2022/05/14 07:36:01;;;;;;;5.22;4.72;;;;;;;23.73;53.10;97043.63;5057796;28;20207;-50
2022/05/14 07:38:32;;;;;;;5.97;4.80;;;;;;;23.56;54.96;97043.25;5057605;28;20230;-50
2022/05/14 07:40:59;;;;;;;5.18;4.57;;;;;;;23.29;53.02;97044.38;5057559;28;20244;-51
2022/05/14 07:43:30;;;;;;;5.30;4.78;;;;;;;23.34;57.01;97050.00;5057015;28;20222;-49
2022/05/14 07:46:01;;;;;;;5.20;4.70;;;;;;;23.58;52.52;97043.91;5058698;28;20589;-50
2022/05/14 07:48:30;;;;;;;6.43;5.15;;;;;;;23.82;53.77;97049.59;5044342;28;20214;-50
2022/05/14 07:50:59;;;;;;;6.03;5.30;;;;;;;23.99;54.95;97042.63;5057219;28;20206;-51
2022/05/14 07:53:30;;;;;;;5.40;4.90;;;;;;;23.77;53.59;97042.94;5057172;28;20207;-50
2022/05/14 07:55:57;;;;;;;5.43;4.18;;;;;;;24.12;53.00;97045.25;5057071;28;20206;-50
2022/05/14 07:58:24;;;;;;;5.22;4.78;;;;;;;24.38;54.43;97039.69;5057133;28;20678;-50
2022/05/14 08:00:52;;;;;;;5.38;4.55;;;;;;;24.09;51.85;97040.28;5057380;28;20230;-50
2022/05/14 08:03:22;;;;;;;6.93;4.65;;;;;;;24.43;53.52;97030.91;5057370;28;20203;-51
2022/05/14 08:05:49;;;;;;;7.32;4.90;;;;;;;24.52;53.76;97030.41;5057003;28;20199;-50
2022/05/14 08:08:16;;;;;;;7.53;5.57;;;;;;;24.11;52.22;97039.03;5057248;28;20210;-50
2022/05/14 08:10:43;;;;;;;7.97;5.60;;;;;;;24.74;53.93;97039.78;5057233;28;20221;-50
2022/05/14 08:13:16;;;;;;;5.35;4.85;;;;;;;24.98;51.30;97040.81;5050129;28;20202;-50
2022/05/14 08:15:44;;;;;;;5.40;4.75;;;;;;;25.01;51.34;97029.53;5056872;28;20214;-50
2022/05/14 08:18:11;;;;;;;6.13;5.07;;;;;;;24.65;51.78;97040.28;5057132;28;20206;-50
2022/05/14 08:20:39;;;;;;;5.93;5.43;;;;;;;24.92;51.11;97039.03;5056693;28;20199;-50
2022/05/14 08:25:50;;;;;;;8.25;4.95;;;;;;;25.19;52.13;97042.25;5054731;28;20219;-51
2022/05/14 08:28:18;;;;;;;6.38;5.10;;;;;;;25.26;52.32;97040.31;5075378;28;20191;-50
2022/05/14 08:30:44;;;;;;;7.43;5.53;;;;;;;25.23;51.00;97040.75;5079451;28;20202;-50
2022/05/14 08:33:11;;;;;;;6.50;5.32;;;;;;;25.24;52.86;97037.00;5062775;28;20207;-51
2022/05/14 08:35:38;;;;;;;7.53;5.80;;;;;;;25.40;50.90;97033.69;5055909;28;20199;-50
2022/05/14 08:38:06;;;;;;;6.38;5.43;;;;;;;25.33;48.29;97029.44;5056516;28;20203;-51
2022/05/14 08:40:35;;;;;;;6.38;4.97;;;;;;;25.40;50.58;97030.19;5056292;28;20595;-51
2022/05/14 08:43:06;;;;;;;5.80;4.68;;;;;;;25.63;49.30;97035.72;5056361;28;20365;-50
2022/05/14 08:45:37;;;;;;;5.82;5.32;;;;;;;25.30;50.38;97027.16;5056443;28;20199;-50
2022/05/14 08:48:07;;;;;;;6.57;5.82;;;;;;;25.37;50.42;97022.47;5056321;28;20195;-51
2022/05/14 08:50:37;;;;;;;5.95;5.03;;;;;;;25.63;51.20;97023.03;5056348;28;20650;-51
2022/05/14 08:53:06;;;;;;;8.27;6.32;;;;;;;25.45;49.61;97022.19;5056418;28;20191;-51
2022/05/14 08:55:40;;;;;;;7.63;5.45;;;;;;;25.79;51.03;97026.16;5055848;28;20207;-51
2022/05/14 08:58:14;;;;;;;7.88;6.20;;;;;;;25.03;48.95;97032.03;5042673;28;20526;-50
2022/05/14 09:00:42;;;;;;;6.28;5.70;;;;;;;25.38;52.29;97035.81;5056018;28;20278;-50
2022/05/14 09:03:11;;;;;;;6.78;5.97;;;;;;;25.80;48.78;97030.50;5055601;28;20675;-51
2022/05/14 09:05:38;;;;;;;6.75;5.82;;;;;;;25.80;48.70;97025.09;5056105;28;20213;-50
2022/05/14 09:08:06;;;;;;;9.60;6.57;;;;;;;25.31;52.55;97020.69;5056119;28;20211;-51
2022/05/14 09:10:35;;;;;;;7.20;5.88;;;;;;;25.72;51.58;97024.34;5055698;28;20213;-50
2022/05/14 09:13:12;;;;;;;7.22;5.97;;;;;;;25.83;47.17;97025.44;5055935;28;20209;-50
2022/05/14 09:15:48;;;;;;;7.32;5.25;;;;;;;26.14;50.66;97025.22;5056658;28;20646;-51
2022/05/14 09:18:20;;;;;;;5.90;5.38;;;;;;;26.61;47.64;97011.75;5056174;28;20225;-51
2022/05/14 09:20:52;;;;;;;7.32;6.63;;;;;;;26.14;48.53;97014.38;5042742;28;20199;-49
2022/05/14 09:23:27;;;;;;;6.82;5.50;;;;;;;25.90;49.27;97017.25;5056861;28;20238;-50
2022/05/14 09:25:55;;;;;;;7.65;5.63;;;;;;;26.19;49.72;97016.41;5059549;28;20294;-50
2022/05/14 09:28:28;;;;;;;7.63;5.53;;;;;;;26.27;47.89;97012.53;5058298;28;20207;-50
2022/05/14 09:30:59;;;;;;;6.47;5.60;;;;;;;25.81;47.64;97013.19;5060909;28;20279;-50
2022/05/14 09:33:28;;;;;;;6.18;5.55;;;;;;;26.16;49.26;97012.25;5056262;28;20272;-50
2022/05/14 09:35:56;;;;;;;5.85;5.35;;;;;;;26.62;47.67;97010.69;5058120;28;20214;-51
2022/05/14 09:38:24;;;;;;;7.88;6.78;;;;;;;26.58;47.22;97012.22;5060151;28;20573;-51
2022/05/14 09:40:54;;;;;;;6.75;6.07;;;;;;;26.73;46.38;97008.00;5056725;28;20260;-51
2022/05/14 09:43:28;;;;;;;6.32;5.75;;;;;;;26.84;45.82;97014.50;5055615;28;20265;-51
2022/05/14 09:46:02;;;;;;;7.10;5.95;;;;;;;26.41;46.19;97003.97;5060072;28;20214;-50
2022/05/14 09:48:32;;;;;;;6.05;5.47;;;;;;;26.55;49.80;96999.13;5045130;28;20195;-50
2022/05/14 09:51:01;;;;;;;8.90;6.35;;;;;;;26.77;47.12;97008.34;5059012;28;20202;-51
2022/05/14 09:53:30;;;;;;;6.85;6.15;;;;;;;26.08;46.31;97006.31;5056509;28;20249;-50
2022/05/14 09:56:25;;;;;;;6.57;5.88;;;;;;;25.37;50.81;97007.06;5055156;28;20210;-49
2022/05/14 09:59:00;;;;;;;6.38;5.82;;;;;;;26.09;49.55;97006.09;5055468;28;20534;-50
2022/05/14 10:01:32;;;;;;;6.75;5.57;;;;;;;26.09;47.43;96999.84;5042937;28;20209;-51
2022/05/14 10:04:08;;;;;;;7.13;6.43;;;;;;;25.13;52.03;96999.88;5055117;28;20199;-50
2022/05/14 10:06:41;;;;;;;6.45;5.78;;;;;;;25.42;49.47;96999.09;5054932;28;20643;-49
2022/05/14 10:09:16;;;;;;;8.00;6.15;;;;;;;25.33;49.73;96997.75;5054925;28;20614;-50
2022/05/14 10:11:45;;;;;;;6.45;5.75;;;;;;;25.73;49.78;96996.22;5054749;28;20256;-50
2022/05/14 10:14:24;;;;;;;5.90;5.28;;;;;;;26.26;53.57;96992.72;5055042;28;20242;-50
2022/05/14 10:17:08;;;;;;;5.75;5.18;;;;;;;26.57;49.79;96997.84;5054933;28;20199;-49
2022/05/14 10:19:56;;;;;;;6.07;5.45;;;;;;;25.89;49.89;96993.91;5054142;28;20235;-50
2022/05/14 10:22:24;;;;;;;7.25;5.93;;;;;;;25.33;50.05;96991.53;5054324;28;20222;-51
2022/05/14 10:28:09;;;;;;;6.38;5.28;;;;;;;24.54;51.20;96993.16;5044870;28;20230;-50
2022/05/14 10:30:44;;;;;;;5.90;5.40;;;;;;;24.02;53.33;96996.28;5042222;28;20522;-49
2022/05/14 10:33:17;;;;;;;6.45;5.20;;;;;;;24.06;54.63;96992.06;5054755;28;20186;-50
2022/05/14 10:35:54;;;;;;;5.90;5.40;;;;;;;24.68;52.98;96991.16;5055160;28;20509;-50
2022/05/14 10:38:25;;;;;;;5.88;5.28;;;;;;;25.37;53.95;96990.81;5054865;28;20194;-50
2022/05/14 10:40:54;;;;;;;8.20;5.72;;;;;;;26.02;50.28;96991.00;5072506;28;20203;-50
2022/05/14 10:43:29;;;;;;;5.85;5.35;;;;;;;25.90;51.35;96982.03;5064139;28;20215;-50
2022/05/14 10:45:56;;;;;;;6.20;5.45;;;;;;;26.15;46.13;96988.06;5074464;28;20290;-49
2022/05/14 10:48:42;;;;;;;8.18;5.60;;;;;;;26.97;48.43;96980.88;5057367;28;20203;-50
2022/05/14 10:51:12;;;;;;;5.47;4.97;;;;;;;27.01;44.49;96976.59;5074077;28;20269;-51
2022/05/14 10:53:40;;;;;;;5.72;5.10;;;;;;;27.28;47.17;96975.00;5060073;28;20196;-50
2022/05/14 10:56:09;;;;;;;7.63;5.90;;;;;;;27.71;45.24;96971.81;5055879;28;20245;-51
2022/05/14 10:58:43;;;;;;;7.28;5.38;;;;;;;27.70;45.41;96971.00;5055037;28;20206;-50
2022/05/14 11:01:23;;;;;;;5.53;5.03;;;;;;;27.75;44.71;96961.28;5058795;28;20217;-49
2022/05/14 11:03:57;;;;;;;6.47;4.68;;;;;;;27.65;42.57;96968.19;5058570;28;20214;-50
2022/05/14 11:06:29;;;;;;;5.35;4.22;;;;;;;28.06;45.82;96958.03;5059246;28;20207;-51
2022/05/14 11:08:56;;;;;;;6.20;4.82;;;;;;;28.31;44.55;96961.22;5058647;28;20203;-51
2022/05/14 11:11:25;;;;;;;7.28;5.90;;;;;;;27.83;40.85;96963.63;5058949;28;20210;-51
2022/05/14 11:14:04;;;;;;;5.40;4.97;;;;;;;28.07;42.25;96960.56;5062019;28;20260;-50
2022/05/14 11:16:39;;;;;;;9.15;5.85;;;;;;;27.80;42.77;96958.69;5072179;28;20195;-51
2022/05/14 11:19:07;;;;;;;5.63;4.90;;;;;;;27.90;41.65;96959.69;5065805;28;20210;-50
2022/05/14 11:21:39;;;;;;;6.05;5.20;;;;;;;27.47;41.73;96954.78;5058267;28;20211;-50
2022/05/14 11:24:07;;;;;;;6.57;5.40;;;;;;;27.53;43.32;96961.97;5044739;28;20231;-50
2022/05/14 11:26:45;;;;;;;5.45;5.05;;;;;;;27.63;42.99;96953.22;5058308;28;20220;-50
2022/05/14 11:29:14;;;;;;;5.10;4.70;;;;;;;28.00;43.44;96953.59;5059640;28;20214;-50
2022/05/14 11:31:51;;;;;;;6.78;5.18;;;;;;;27.86;41.12;96952.25;5058918;28;20567;-50
2022/05/14 11:34:20;;;;;;;5.63;4.75;;;;;;;27.59;42.66;96952.03;5058230;28;20199;-51
2022/05/14 11:36:49;;;;;;;6.28;4.85;;;;;;;27.57;42.94;96946.84;5058775;28;20604;-50
2022/05/14 11:39:31;;;;;;;5.30;4.85;;;;;;;28.00;41.13;96937.28;5058977;28;20199;-50
2022/05/14 11:42:13;;;;;;;5.20;4.40;;;;;;;27.96;41.20;96933.41;5048444;28;20616;-50
2022/05/14 11:44:45;;;;;;;4.57;4.25;;;;;;;27.99;42.25;96924.75;5058510;28;20202;-50
2022/05/14 11:47:33;;;;;;;4.25;3.80;;;;;;;28.15;41.09;96923.97;5057797;28;20203;-50
2022/05/14 11:50:03;;;;;;;5.18;4.68;;;;;;;27.69;40.26;96925.88;5044816;28;20210;-51
2022/05/14 11:52:36;;;;;;;5.20;3.75;;;;;;;27.47;41.42;96924.91;5056456;28;20268;-50
2022/05/14 11:55:08;;;;;;;5.28;4.05;;;;;;;27.11;41.87;96934.22;5056853;28;20546;-50
2022/05/14 11:57:40;;;;;;;5.65;4.18;;;;;;;26.90;44.09;96923.16;5057480;28;20199;-49
2022/05/14 12:00:10;;;;;;;5.20;4.72;;;;;;;26.76;42.04;96919.84;5057197;28;20207;-50